sensor_id;sensor_type;location;lat;lon;timestamp;P1;durP1;ratioP1;P2;durP2;ratioP2
76604;SDS011;65496;50.978;16.998;2023-04-06T00:01:38;18.67;;;11.70;;
76604;SDS011;65496;50.978;16.998;2023-04-06T00:04:05;16.95;;;11.57;;
76604;SDS011;65496;50.978;16.998;2023-04-06T00:06:32;21.67;;;13.55;;
76604;SDS011;65496;50.978;16.998;2023-04-06T00:08:58;19.95;;;12.18;;
76604;SDS011;65496;50.978;16.998;2023-04-06T00:11:25;19.00;;;14.10;;
76604;SDS011;65496;50.978;16.998;2023-04-06T00:13:52;21.92;;;13.35;;
76604;SDS011;65496;50.978;16.998;2023-04-06T00:16:18;19.80;;;12.02;;
76604;SDS011;65496;50.978;16.998;2023-04-06T00:18:44;20.27;;;13.63;;
76604;SDS011;65496;50.978;16.998;2023-04-06T00:21:11;18.15;;;12.93;;
76604;SDS011;65496;50.978;16.998;2023-04-06T00:23:38;19.70;;;12.00;;
76604;SDS011;65496;50.978;16.998;2023-04-06T00:26:05;18.98;;;12.07;;
76604;SDS011;65496;50.978;16.998;2023-04-06T00:28:31;17.58;;;12.38;;
76604;SDS011;65496;50.978;16.998;2023-04-06T00:30:57;18.65;;;13.25;;
76604;SDS011;65496;50.978;16.998;2023-04-06T00:33:23;17.67;;;12.70;;
76604;SDS011;65496;50.978;16.998;2023-04-06T00:35:49;17.55;;;11.68;;
76604;SDS011;65496;50.978;16.998;2023-04-06T00:38:16;19.55;;;11.75;;
76604;SDS011;65496;50.978;16.998;2023-04-06T00:40:42;16.30;;;12.43;;
76604;SDS011;65496;50.978;16.998;2023-04-06T00:43:11;18.73;;;11.95;;
76604;SDS011;65496;50.978;16.998;2023-04-06T00:45:38;18.92;;;12.75;;
76604;SDS011;65496;50.978;16.998;2023-04-06T00:48:05;15.82;;;11.38;;
76604;SDS011;65496;50.978;16.998;2023-04-06T00:50:32;18.33;;;11.95;;
76604;SDS011;65496;50.978;16.998;2023-04-06T00:52:59;18.15;;;11.65;;
76604;SDS011;65496;50.978;16.998;2023-04-06T00:55:28;17.67;;;12.50;;
76604;SDS011;65496;50.978;16.998;2023-04-06T00:57:55;16.85;;;10.80;;
76604;SDS011;65496;50.978;16.998;2023-04-06T01:00:24;17.40;;;12.38;;
76604;SDS011;65496;50.978;16.998;2023-04-06T01:02:50;19.67;;;12.40;;
76604;SDS011;65496;50.978;16.998;2023-04-06T01:05:17;18.13;;;11.45;;
76604;SDS011;65496;50.978;16.998;2023-04-06T01:07:43;20.05;;;12.07;;
76604;SDS011;65496;50.978;16.998;2023-04-06T01:10:09;17.80;;;11.52;;
76604;SDS011;65496;50.978;16.998;2023-04-06T01:12:35;19.95;;;13.20;;
76604;SDS011;65496;50.978;16.998;2023-04-06T01:15:03;18.05;;;12.43;;
76604;SDS011;65496;50.978;16.998;2023-04-06T01:17:30;15.32;;;12.07;;
76604;SDS011;65496;50.978;16.998;2023-04-06T01:19:56;18.73;;;11.88;;
76604;SDS011;65496;50.978;16.998;2023-04-06T01:22:22;16.33;;;11.40;;
76604;SDS011;65496;50.978;16.998;2023-04-06T01:24:50;16.55;;;11.05;;
76604;SDS011;65496;50.978;16.998;2023-04-06T01:27:15;18.08;;;10.68;;
76604;SDS011;65496;50.978;16.998;2023-04-06T01:29:42;18.30;;;11.77;;
76604;SDS011;65496;50.978;16.998;2023-04-06T01:32:08;17.30;;;11.10;;
76604;SDS011;65496;50.978;16.998;2023-04-06T01:34:35;20.58;;;13.40;;
76604;SDS011;65496;50.978;16.998;2023-04-06T01:37:01;15.77;;;10.77;;
76604;SDS011;65496;50.978;16.998;2023-04-06T01:39:27;16.13;;;10.85;;
76604;SDS011;65496;50.978;16.998;2023-04-06T01:41:53;15.07;;;11.02;;
76604;SDS011;65496;50.978;16.998;2023-04-06T01:44:19;16.30;;;10.90;;
76604;SDS011;65496;50.978;16.998;2023-04-06T01:46:45;15.70;;;10.48;;
76604;SDS011;65496;50.978;16.998;2023-04-06T01:49:11;16.90;;;11.77;;
76604;SDS011;65496;50.978;16.998;2023-04-06T01:51:37;17.27;;;11.07;;
76604;SDS011;65496;50.978;16.998;2023-04-06T01:54:04;16.55;;;10.90;;
76604;SDS011;65496;50.978;16.998;2023-04-06T01:56:30;15.40;;;10.60;;
76604;SDS011;65496;50.978;16.998;2023-04-06T01:58:56;18.77;;;11.68;;
76604;SDS011;65496;50.978;16.998;2023-04-06T02:01:22;15.82;;;12.18;;
76604;SDS011;65496;50.978;16.998;2023-04-06T02:03:48;17.45;;;11.52;;
76604;SDS011;65496;50.978;16.998;2023-04-06T02:06:14;20.08;;;12.57;;
76604;SDS011;65496;50.978;16.998;2023-04-06T02:08:40;18.27;;;11.40;;
76604;SDS011;65496;50.978;16.998;2023-04-06T02:11:06;16.63;;;11.45;;
76604;SDS011;65496;50.978;16.998;2023-04-06T02:13:33;18.20;;;11.95;;
76604;SDS011;65496;50.978;16.998;2023-04-06T02:15:58;18.73;;;12.80;;
76604;SDS011;65496;50.978;16.998;2023-04-06T02:18:24;16.98;;;11.38;;
76604;SDS011;65496;50.978;16.998;2023-04-06T02:20:50;17.27;;;12.25;;
76604;SDS011;65496;50.978;16.998;2023-04-06T02:23:17;16.55;;;11.70;;
76604;SDS011;65496;50.978;16.998;2023-04-06T02:25:43;17.52;;;11.57;;
76604;SDS011;65496;50.978;16.998;2023-04-06T02:28:09;16.80;;;11.85;;
76604;SDS011;65496;50.978;16.998;2023-04-06T02:30:35;16.35;;;11.13;;
76604;SDS011;65496;50.978;16.998;2023-04-06T02:33:01;17.65;;;13.18;;
76604;SDS011;65496;50.978;16.998;2023-04-06T02:35:28;18.15;;;12.13;;
76604;SDS011;65496;50.978;16.998;2023-04-06T02:37:57;18.45;;;12.02;;
76604;SDS011;65496;50.978;16.998;2023-04-06T02:40:23;19.40;;;12.38;;
76604;SDS011;65496;50.978;16.998;2023-04-06T02:42:49;15.20;;;12.13;;
76604;SDS011;65496;50.978;16.998;2023-04-06T02:45:15;19.48;;;12.50;;
76604;SDS011;65496;50.978;16.998;2023-04-06T02:47:41;17.17;;;11.60;;
76604;SDS011;65496;50.978;16.998;2023-04-06T02:50:07;16.73;;;10.98;;
76604;SDS011;65496;50.978;16.998;2023-04-06T02:52:34;17.70;;;12.82;;
76604;SDS011;65496;50.978;16.998;2023-04-06T02:55:00;16.85;;;11.95;;
76604;SDS011;65496;50.978;16.998;2023-04-06T02:57:26;16.38;;;12.38;;
76604;SDS011;65496;50.978;16.998;2023-04-06T02:59:52;18.90;;;13.50;;
76604;SDS011;65496;50.978;16.998;2023-04-06T03:02:18;17.48;;;11.85;;
76604;SDS011;65496;50.978;16.998;2023-04-06T03:04:44;16.35;;;11.52;;
76604;SDS011;65496;50.978;16.998;2023-04-06T03:07:10;19.52;;;12.95;;
76604;SDS011;65496;50.978;16.998;2023-04-06T03:09:36;17.45;;;12.43;;
76604;SDS011;65496;50.978;16.998;2023-04-06T03:12:03;17.42;;;11.18;;
76604;SDS011;65496;50.978;16.998;2023-04-06T03:14:29;17.25;;;11.73;;
76604;SDS011;65496;50.978;16.998;2023-04-06T03:16:55;15.23;;;10.35;;
76604;SDS011;65496;50.978;16.998;2023-04-06T03:19:21;18.23;;;12.07;;
76604;SDS011;65496;50.978;16.998;2023-04-06T03:21:47;16.52;;;10.52;;
76604;SDS011;65496;50.978;16.998;2023-04-06T03:24:13;16.25;;;11.98;;
76604;SDS011;65496;50.978;16.998;2023-04-06T03:26:39;15.68;;;10.00;;
76604;SDS011;65496;50.978;16.998;2023-04-06T03:29:05;16.70;;;11.07;;
76604;SDS011;65496;50.978;16.998;2023-04-06T03:31:31;16.23;;;10.63;;
76604;SDS011;65496;50.978;16.998;2023-04-06T03:33:57;16.38;;;12.02;;
76604;SDS011;65496;50.978;16.998;2023-04-06T03:36:24;16.60;;;10.65;;
76604;SDS011;65496;50.978;16.998;2023-04-06T03:38:51;15.00;;;11.00;;
76604;SDS011;65496;50.978;16.998;2023-04-06T03:41:19;16.08;;;10.50;;
76604;SDS011;65496;50.978;16.998;2023-04-06T03:43:45;16.92;;;11.80;;
76604;SDS011;65496;50.978;16.998;2023-04-06T03:46:11;14.18;;;11.30;;
76604;SDS011;65496;50.978;16.998;2023-04-06T03:48:37;15.77;;;11.00;;
76604;SDS011;65496;50.978;16.998;2023-04-06T03:51:03;17.20;;;10.93;;
76604;SDS011;65496;50.978;16.998;2023-04-06T03:53:29;17.50;;;11.32;;
76604;SDS011;65496;50.978;16.998;2023-04-06T03:55:56;15.50;;;11.27;;
76604;SDS011;65496;50.978;16.998;2023-04-06T03:58:22;17.90;;;12.30;;
76604;SDS011;65496;50.978;16.998;2023-04-06T04:00:48;16.33;;;10.63;;
76604;SDS011;65496;50.978;16.998;2023-04-06T04:03:13;16.10;;;11.70;;
76604;SDS011;65496;50.978;16.998;2023-04-06T04:05:40;15.75;;;11.85;;
76604;SDS011;65496;50.978;16.998;2023-04-06T04:08:05;16.77;;;11.30;;
76604;SDS011;65496;50.978;16.998;2023-04-06T04:10:32;15.68;;;11.25;;
76604;SDS011;65496;50.978;16.998;2023-04-06T04:12:57;16.92;;;11.27;;
76604;SDS011;65496;50.978;16.998;2023-04-06T04:15:24;16.20;;;11.65;;
76604;SDS011;65496;50.978;16.998;2023-04-06T04:17:50;14.90;;;10.40;;
76604;SDS011;65496;50.978;16.998;2023-04-06T04:20:16;15.88;;;11.73;;
76604;SDS011;65496;50.978;16.998;2023-04-06T04:22:42;15.90;;;11.25;;
76604;SDS011;65496;50.978;16.998;2023-04-06T04:25:09;17.10;;;11.90;;
76604;SDS011;65496;50.978;16.998;2023-04-06T04:27:35;14.93;;;11.82;;
76604;SDS011;65496;50.978;16.998;2023-04-06T04:30:01;16.90;;;11.27;;
76604;SDS011;65496;50.978;16.998;2023-04-06T04:32:27;17.73;;;11.70;;
76604;SDS011;65496;50.978;16.998;2023-04-06T04:34:53;16.33;;;11.15;;
76604;SDS011;65496;50.978;16.998;2023-04-06T04:37:19;15.88;;;11.40;;
76604;SDS011;65496;50.978;16.998;2023-04-06T04:39:46;15.70;;;10.75;;
76604;SDS011;65496;50.978;16.998;2023-04-06T04:42:11;16.00;;;11.07;;
76604;SDS011;65496;50.978;16.998;2023-04-06T04:44:38;17.08;;;12.40;;
76604;SDS011;65496;50.978;16.998;2023-04-06T04:47:04;14.95;;;10.63;;
76604;SDS011;65496;50.978;16.998;2023-04-06T04:49:30;17.92;;;13.45;;
76604;SDS011;65496;50.978;16.998;2023-04-06T04:51:56;19.52;;;11.60;;
76604;SDS011;65496;50.978;16.998;2023-04-06T04:54:22;17.92;;;11.52;;
76604;SDS011;65496;50.978;16.998;2023-04-06T04:56:48;18.63;;;12.00;;
76604;SDS011;65496;50.978;16.998;2023-04-06T04:59:15;15.85;;;11.57;;
76604;SDS011;65496;50.978;16.998;2023-04-06T05:01:41;17.00;;;11.18;;
76604;SDS011;65496;50.978;16.998;2023-04-06T05:04:08;18.70;;;13.07;;
76604;SDS011;65496;50.978;16.998;2023-04-06T05:06:34;20.83;;;13.60;;
76604;SDS011;65496;50.978;16.998;2023-04-06T05:09:00;17.08;;;11.73;;
76604;SDS011;65496;50.978;16.998;2023-04-06T05:11:26;18.38;;;12.02;;
76604;SDS011;65496;50.978;16.998;2023-04-06T05:13:52;17.52;;;11.93;;
76604;SDS011;65496;50.978;16.998;2023-04-06T05:16:18;17.92;;;12.50;;
76604;SDS011;65496;50.978;16.998;2023-04-06T05:18:44;16.75;;;12.25;;
76604;SDS011;65496;50.978;16.998;2023-04-06T05:21:10;18.15;;;13.35;;
76604;SDS011;65496;50.978;16.998;2023-04-06T05:23:37;17.13;;;12.82;;
76604;SDS011;65496;50.978;16.998;2023-04-06T05:26:03;20.17;;;12.18;;
76604;SDS011;65496;50.978;16.998;2023-04-06T05:28:30;19.02;;;12.88;;
76604;SDS011;65496;50.978;16.998;2023-04-06T05:30:56;17.80;;;11.82;;
76604;SDS011;65496;50.978;16.998;2023-04-06T05:33:22;15.38;;;11.45;;
76604;SDS011;65496;50.978;16.998;2023-04-06T05:35:49;16.88;;;12.55;;
76604;SDS011;65496;50.978;16.998;2023-04-06T05:38:15;18.15;;;13.13;;
76604;SDS011;65496;50.978;16.998;2023-04-06T05:40:41;18.75;;;12.38;;
76604;SDS011;65496;50.978;16.998;2023-04-06T05:43:08;18.05;;;14.40;;
76604;SDS011;65496;50.978;16.998;2023-04-06T05:45:34;17.25;;;13.60;;
76604;SDS011;65496;50.978;16.998;2023-04-06T05:48:01;16.13;;;12.95;;
76604;SDS011;65496;50.978;16.998;2023-04-06T05:50:27;20.55;;;13.00;;
76604;SDS011;65496;50.978;16.998;2023-04-06T05:52:54;18.23;;;12.68;;
76604;SDS011;65496;50.978;16.998;2023-04-06T05:55:20;17.80;;;13.45;;
76604;SDS011;65496;50.978;16.998;2023-04-06T05:57:46;18.08;;;13.38;;
76604;SDS011;65496;50.978;16.998;2023-04-06T06:00:12;16.95;;;12.52;;
76604;SDS011;65496;50.978;16.998;2023-04-06T06:02:39;17.40;;;13.15;;
76604;SDS011;65496;50.978;16.998;2023-04-06T06:05:08;17.95;;;12.23;;
76604;SDS011;65496;50.978;16.998;2023-04-06T06:07:35;15.13;;;11.75;;
76604;SDS011;65496;50.978;16.998;2023-04-06T06:10:01;18.65;;;12.82;;
76604;SDS011;65496;50.978;16.998;2023-04-06T06:12:28;16.85;;;11.90;;
76604;SDS011;65496;50.978;16.998;2023-04-06T06:14:54;16.80;;;11.13;;
76604;SDS011;65496;50.978;16.998;2023-04-06T06:17:20;16.15;;;12.38;;
76604;SDS011;65496;50.978;16.998;2023-04-06T06:19:47;15.98;;;13.15;;
76604;SDS011;65496;50.978;16.998;2023-04-06T06:22:13;15.45;;;11.55;;
76604;SDS011;65496;50.978;16.998;2023-04-06T06:24:39;17.33;;;12.10;;
76604;SDS011;65496;50.978;16.998;2023-04-06T06:27:05;16.98;;;13.20;;
76604;SDS011;65496;50.978;16.998;2023-04-06T06:29:33;18.88;;;12.88;;
76604;SDS011;65496;50.978;16.998;2023-04-06T06:31:59;17.85;;;11.77;;
76604;SDS011;65496;50.978;16.998;2023-04-06T06:34:25;18.17;;;12.85;;
76604;SDS011;65496;50.978;16.998;2023-04-06T06:36:51;23.65;;;13.30;;
76604;SDS011;65496;50.978;16.998;2023-04-06T06:39:19;19.98;;;11.90;;
76604;SDS011;65496;50.978;16.998;2023-04-06T06:41:46;17.48;;;12.88;;
76604;SDS011;65496;50.978;16.998;2023-04-06T06:44:11;15.98;;;11.82;;
76604;SDS011;65496;50.978;16.998;2023-04-06T06:46:38;16.52;;;11.85;;
76604;SDS011;65496;50.978;16.998;2023-04-06T06:49:04;17.55;;;12.82;;
76604;SDS011;65496;50.978;16.998;2023-04-06T06:51:30;17.67;;;12.07;;
76604;SDS011;65496;50.978;16.998;2023-04-06T06:53:55;16.27;;;11.95;;
76604;SDS011;65496;50.978;16.998;2023-04-06T06:56:22;15.43;;;11.13;;
76604;SDS011;65496;50.978;16.998;2023-04-06T06:58:47;14.57;;;10.95;;
76604;SDS011;65496;50.978;16.998;2023-04-06T07:01:14;16.70;;;12.45;;
76604;SDS011;65496;50.978;16.998;2023-04-06T07:03:40;15.07;;;12.30;;
76604;SDS011;65496;50.978;16.998;2023-04-06T07:06:06;15.98;;;11.95;;
76604;SDS011;65496;50.978;16.998;2023-04-06T07:08:32;16.05;;;11.48;;
76604;SDS011;65496;50.978;16.998;2023-04-06T07:10:58;16.63;;;12.93;;
76604;SDS011;65496;50.978;16.998;2023-04-06T07:13:24;14.10;;;11.50;;
76604;SDS011;65496;50.978;16.998;2023-04-06T07:15:52;16.80;;;13.00;;
76604;SDS011;65496;50.978;16.998;2023-04-06T07:18:19;15.93;;;12.10;;
76604;SDS011;65496;50.978;16.998;2023-04-06T07:20:45;15.88;;;12.90;;
76604;SDS011;65496;50.978;16.998;2023-04-06T07:23:11;15.02;;;10.75;;
76604;SDS011;65496;50.978;16.998;2023-04-06T07:25:38;15.70;;;11.25;;
76604;SDS011;65496;50.978;16.998;2023-04-06T07:28:04;14.70;;;11.75;;
76604;SDS011;65496;50.978;16.998;2023-04-06T07:30:30;13.75;;;9.95;;
76604;SDS011;65496;50.978;16.998;2023-04-06T07:32:56;13.65;;;10.25;;
76604;SDS011;65496;50.978;16.998;2023-04-06T07:35:23;14.48;;;10.75;;
76604;SDS011;65496;50.978;16.998;2023-04-06T07:37:49;13.20;;;10.77;;
76604;SDS011;65496;50.978;16.998;2023-04-06T07:40:16;12.45;;;9.68;;
76604;SDS011;65496;50.978;16.998;2023-04-06T07:42:42;13.27;;;11.27;;
76604;SDS011;65496;50.978;16.998;2023-04-06T07:45:08;13.73;;;11.18;;
76604;SDS011;65496;50.978;16.998;2023-04-06T07:47:35;14.20;;;11.27;;
76604;SDS011;65496;50.978;16.998;2023-04-06T07:50:01;13.10;;;10.73;;
76604;SDS011;65496;50.978;16.998;2023-04-06T07:52:27;15.50;;;12.48;;
76604;SDS011;65496;50.978;16.998;2023-04-06T07:54:53;14.15;;;11.65;;
76604;SDS011;65496;50.978;16.998;2023-04-06T07:57:19;16.02;;;12.10;;
76604;SDS011;65496;50.978;16.998;2023-04-06T07:59:45;14.40;;;11.63;;
76604;SDS011;65496;50.978;16.998;2023-04-06T08:02:11;13.05;;;10.48;;
76604;SDS011;65496;50.978;16.998;2023-04-06T08:04:37;14.63;;;11.90;;
76604;SDS011;65496;50.978;16.998;2023-04-06T08:07:03;17.02;;;13.40;;
76604;SDS011;65496;50.978;16.998;2023-04-06T08:09:29;14.82;;;11.98;;
76604;SDS011;65496;50.978;16.998;2023-04-06T08:11:55;16.30;;;13.32;;
76604;SDS011;65496;50.978;16.998;2023-04-06T08:14:22;14.02;;;11.40;;
76604;SDS011;65496;50.978;16.998;2023-04-06T08:16:48;15.18;;;11.60;;
76604;SDS011;65496;50.978;16.998;2023-04-06T08:19:15;16.95;;;12.25;;
76604;SDS011;65496;50.978;16.998;2023-04-06T08:21:42;16.55;;;12.30;;
76604;SDS011;65496;50.978;16.998;2023-04-06T08:24:09;19.25;;;14.35;;
76604;SDS011;65496;50.978;16.998;2023-04-06T08:26:35;16.63;;;12.90;;
76604;SDS011;65496;50.978;16.998;2023-04-06T08:29:01;16.33;;;12.60;;
76604;SDS011;65496;50.978;16.998;2023-04-06T08:31:29;18.75;;;14.02;;
76604;SDS011;65496;50.978;16.998;2023-04-06T08:33:56;16.88;;;12.95;;
76604;SDS011;65496;50.978;16.998;2023-04-06T08:36:22;17.17;;;13.30;;
76604;SDS011;65496;50.978;16.998;2023-04-06T08:38:48;17.98;;;14.02;;
76604;SDS011;65496;50.978;16.998;2023-04-06T08:41:15;15.65;;;12.60;;
76604;SDS011;65496;50.978;16.998;2023-04-06T08:46:12;20.02;;;15.13;;
76604;SDS011;65496;50.978;16.998;2023-04-06T08:48:38;16.98;;;13.90;;
76604;SDS011;65496;50.978;16.998;2023-04-06T08:51:06;17.58;;;13.88;;
76604;SDS011;65496;50.978;16.998;2023-04-06T08:53:33;16.02;;;12.77;;
76604;SDS011;65496;50.978;16.998;2023-04-06T08:55:59;16.25;;;13.65;;
76604;SDS011;65496;50.978;16.998;2023-04-06T08:58:28;15.63;;;13.18;;
76604;SDS011;65496;50.978;16.998;2023-04-06T09:00:59;17.80;;;13.48;;
76604;SDS011;65496;50.978;16.998;2023-04-06T09:03:28;14.80;;;11.65;;
76604;SDS011;65496;50.978;16.998;2023-04-06T09:05:55;15.05;;;11.80;;
76604;SDS011;65496;50.978;16.998;2023-04-06T09:08:22;14.20;;;10.52;;
76604;SDS011;65496;50.978;16.998;2023-04-06T09:10:48;16.80;;;11.18;;
76604;SDS011;65496;50.978;16.998;2023-04-06T09:13:15;15.30;;;10.93;;
76604;SDS011;65496;50.978;16.998;2023-04-06T09:15:40;12.80;;;9.57;;
76604;SDS011;65496;50.978;16.998;2023-04-06T09:18:07;13.32;;;9.43;;
76604;SDS011;65496;50.978;16.998;2023-04-06T09:20:33;11.77;;;9.30;;
76604;SDS011;65496;50.978;16.998;2023-04-06T09:23:00;12.48;;;8.82;;
76604;SDS011;65496;50.978;16.998;2023-04-06T09:25:26;12.15;;;9.65;;
76604;SDS011;65496;50.978;16.998;2023-04-06T09:27:59;12.82;;;10.93;;
76604;SDS011;65496;50.978;16.998;2023-04-06T09:30:26;11.85;;;8.30;;
76604;SDS011;65496;50.978;16.998;2023-04-06T09:32:53;12.02;;;9.18;;
76604;SDS011;65496;50.978;16.998;2023-04-06T09:35:21;11.02;;;9.20;;
76604;SDS011;65496;50.978;16.998;2023-04-06T09:37:48;9.35;;;8.30;;
76604;SDS011;65496;50.978;16.998;2023-04-06T09:40:16;11.38;;;8.57;;
76604;SDS011;65496;50.978;16.998;2023-04-06T09:42:45;10.00;;;7.70;;
76604;SDS011;65496;50.978;16.998;2023-04-06T09:45:13;9.10;;;7.95;;
76604;SDS011;65496;50.978;16.998;2023-04-06T09:47:42;10.75;;;8.18;;
76604;SDS011;65496;50.978;16.998;2023-04-06T09:50:11;9.70;;;7.00;;
76604;SDS011;65496;50.978;16.998;2023-04-06T09:52:49;9.93;;;7.10;;
76604;SDS011;65496;50.978;16.998;2023-04-06T09:55:22;9.45;;;8.15;;
76604;SDS011;65496;50.978;16.998;2023-04-06T09:58:06;10.15;;;7.70;;
76604;SDS011;65496;50.978;16.998;2023-04-06T10:00:43;8.32;;;7.43;;
76604;SDS011;65496;50.978;16.998;2023-04-06T10:03:17;9.63;;;7.28;;
76604;SDS011;65496;50.978;16.998;2023-04-06T10:05:56;11.43;;;7.85;;
76604;SDS011;65496;50.978;16.998;2023-04-06T10:08:28;9.23;;;7.38;;
76604;SDS011;65496;50.978;16.998;2023-04-06T10:10:57;9.23;;;6.30;;
76604;SDS011;65496;50.978;16.998;2023-04-06T10:13:24;10.43;;;7.50;;
76604;SDS011;65496;50.978;16.998;2023-04-06T10:15:51;8.43;;;6.75;;
76604;SDS011;65496;50.978;16.998;2023-04-06T10:18:18;6.80;;;6.10;;
76604;SDS011;65496;50.978;16.998;2023-04-06T10:20:51;7.70;;;5.97;;
76604;SDS011;65496;50.978;16.998;2023-04-06T10:25:54;8.75;;;6.80;;
76604;SDS011;65496;50.978;16.998;2023-04-06T10:28:21;8.18;;;6.80;;
76604;SDS011;65496;50.978;16.998;2023-04-06T10:30:48;8.07;;;5.90;;
76604;SDS011;65496;50.978;16.998;2023-04-06T10:33:15;8.00;;;6.03;;
76604;SDS011;65496;50.978;16.998;2023-04-06T10:35:41;9.27;;;7.07;;
76604;SDS011;65496;50.978;16.998;2023-04-06T10:38:08;6.78;;;5.35;;
76604;SDS011;65496;50.978;16.998;2023-04-06T10:40:37;7.00;;;5.47;;
76604;SDS011;65496;50.978;16.998;2023-04-06T10:45:56;8.98;;;5.43;;
76604;SDS011;65496;50.978;16.998;2023-04-06T10:48:35;7.80;;;6.53;;
76604;SDS011;65496;50.978;16.998;2023-04-06T10:51:16;7.57;;;5.85;;
76604;SDS011;65496;50.978;16.998;2023-04-06T10:53:44;7.25;;;5.80;;
76604;SDS011;65496;50.978;16.998;2023-04-06T10:56:14;8.27;;;6.00;;
76604;SDS011;65496;50.978;16.998;2023-04-06T10:58:45;7.05;;;5.95;;
76604;SDS011;65496;50.978;16.998;2023-04-06T11:01:12;6.55;;;5.15;;
76604;SDS011;65496;50.978;16.998;2023-04-06T11:03:43;7.13;;;5.80;;
76604;SDS011;65496;50.978;16.998;2023-04-06T11:06:22;6.18;;;4.97;;
76604;SDS011;65496;50.978;16.998;2023-04-06T11:08:49;6.18;;;5.57;;
76604;SDS011;65496;50.978;16.998;2023-04-06T11:11:17;7.78;;;5.10;;
76604;SDS011;65496;50.978;16.998;2023-04-06T11:13:46;6.63;;;4.90;;
76604;SDS011;65496;50.978;16.998;2023-04-06T11:16:19;7.18;;;5.28;;
76604;SDS011;65496;50.978;16.998;2023-04-06T11:18:56;6.60;;;4.97;;
76604;SDS011;65496;50.978;16.998;2023-04-06T11:26:46;6.13;;;4.50;;
76604;SDS011;65496;50.978;16.998;2023-04-06T11:29:23;5.60;;;4.20;;
76604;SDS011;65496;50.978;16.998;2023-04-06T11:32:03;6.85;;;4.82;;
76604;SDS011;65496;50.978;16.998;2023-04-06T11:34:30;6.40;;;4.32;;
76604;SDS011;65496;50.978;16.998;2023-04-06T11:37:01;5.65;;;4.18;;
76604;SDS011;65496;50.978;16.998;2023-04-06T11:39:31;6.75;;;4.85;;
76604;SDS011;65496;50.978;16.998;2023-04-06T11:41:59;6.13;;;4.72;;
76604;SDS011;65496;50.978;16.998;2023-04-06T11:44:34;6.10;;;4.68;;
76604;SDS011;65496;50.978;16.998;2023-04-06T11:47:06;6.22;;;4.60;;
76604;SDS011;65496;50.978;16.998;2023-04-06T11:49:36;5.38;;;3.78;;
76604;SDS011;65496;50.978;16.998;2023-04-06T11:52:13;5.55;;;4.30;;
76604;SDS011;65496;50.978;16.998;2023-04-06T11:54:42;5.72;;;4.65;;
76604;SDS011;65496;50.978;16.998;2023-04-06T11:57:08;5.43;;;3.95;;
76604;SDS011;65496;50.978;16.998;2023-04-06T11:59:35;5.88;;;4.72;;
76604;SDS011;65496;50.978;16.998;2023-04-06T12:02:02;5.43;;;4.05;;
76604;SDS011;65496;50.978;16.998;2023-04-06T12:04:28;6.38;;;4.88;;
76604;SDS011;65496;50.978;16.998;2023-04-06T12:06:54;5.80;;;4.68;;
76604;SDS011;65496;50.978;16.998;2023-04-06T12:09:21;4.53;;;3.95;;
76604;SDS011;65496;50.978;16.998;2023-04-06T12:11:47;6.07;;;4.55;;
76604;SDS011;65496;50.978;16.998;2023-04-06T12:14:13;4.93;;;4.22;;
76604;SDS011;65496;50.978;16.998;2023-04-06T12:16:39;5.10;;;4.05;;
76604;SDS011;65496;50.978;16.998;2023-04-06T12:19:06;5.50;;;4.22;;
76604;SDS011;65496;50.978;16.998;2023-04-06T12:21:32;4.35;;;3.63;;
76604;SDS011;65496;50.978;16.998;2023-04-06T12:23:59;4.40;;;3.78;;
76604;SDS011;65496;50.978;16.998;2023-04-06T12:26:26;5.88;;;4.07;;
76604;SDS011;65496;50.978;16.998;2023-04-06T12:28:53;4.53;;;4.07;;
76604;SDS011;65496;50.978;16.998;2023-04-06T12:31:19;6.15;;;4.32;;
76604;SDS011;65496;50.978;16.998;2023-04-06T12:33:47;4.18;;;3.65;;
76604;SDS011;65496;50.978;16.998;2023-04-06T12:36:17;4.90;;;4.13;;
76604;SDS011;65496;50.978;16.998;2023-04-06T12:38:46;6.28;;;4.05;;
76604;SDS011;65496;50.978;16.998;2023-04-06T12:41:13;6.43;;;3.88;;
76604;SDS011;65496;50.978;16.998;2023-04-06T12:43:43;7.00;;;4.63;;
76604;SDS011;65496;50.978;16.998;2023-04-06T12:46:09;4.88;;;4.13;;
76604;SDS011;65496;50.978;16.998;2023-04-06T12:48:36;4.22;;;3.70;;
76604;SDS011;65496;50.978;16.998;2023-04-06T12:51:02;4.88;;;4.20;;
76604;SDS011;65496;50.978;16.998;2023-04-06T12:53:31;4.68;;;4.07;;
76604;SDS011;65496;50.978;16.998;2023-04-06T12:55:58;6.45;;;4.38;;
76604;SDS011;65496;50.978;16.998;2023-04-06T12:58:24;5.35;;;4.20;;
76604;SDS011;65496;50.978;16.998;2023-04-06T13:00:55;4.97;;;4.10;;
76604;SDS011;65496;50.978;16.998;2023-04-06T13:03:21;5.40;;;4.60;;
76604;SDS011;65496;50.978;16.998;2023-04-06T13:05:48;6.10;;;4.38;;
76604;SDS011;65496;50.978;16.998;2023-04-06T13:08:18;4.82;;;4.32;;
76604;SDS011;65496;50.978;16.998;2023-04-06T13:10:48;5.75;;;4.75;;
76604;SDS011;65496;50.978;16.998;2023-04-06T13:13:17;4.90;;;4.35;;
76604;SDS011;65496;50.978;16.998;2023-04-06T13:15:50;5.78;;;3.88;;
76604;SDS011;65496;50.978;16.998;2023-04-06T13:18:17;4.90;;;4.40;;
76604;SDS011;65496;50.978;16.998;2023-04-06T13:20:43;5.43;;;4.63;;
76604;SDS011;65496;50.978;16.998;2023-04-06T13:23:09;5.05;;;4.05;;
76604;SDS011;65496;50.978;16.998;2023-04-06T13:25:36;5.32;;;4.22;;
76604;SDS011;65496;50.978;16.998;2023-04-06T13:28:02;5.15;;;4.65;;
76604;SDS011;65496;50.978;16.998;2023-04-06T13:30:28;4.55;;;3.88;;
76604;SDS011;65496;50.978;16.998;2023-04-06T13:32:55;4.38;;;3.90;;
76604;SDS011;65496;50.978;16.998;2023-04-06T13:35:21;6.25;;;4.85;;
76604;SDS011;65496;50.978;16.998;2023-04-06T13:37:47;6.53;;;5.85;;
76604;SDS011;65496;50.978;16.998;2023-04-06T13:40:13;7.35;;;5.88;;
76604;SDS011;65496;50.978;16.998;2023-04-06T13:42:40;6.35;;;5.68;;
76604;SDS011;65496;50.978;16.998;2023-04-06T13:45:07;7.03;;;6.38;;
76604;SDS011;65496;50.978;16.998;2023-04-06T13:47:33;8.68;;;5.88;;
76604;SDS011;65496;50.978;16.998;2023-04-06T13:50:00;7.10;;;6.00;;
76604;SDS011;65496;50.978;16.998;2023-04-06T13:52:26;9.10;;;6.45;;
76604;SDS011;65496;50.978;16.998;2023-04-06T13:54:52;7.07;;;5.85;;
76604;SDS011;65496;50.978;16.998;2023-04-06T13:57:18;6.30;;;5.10;;
76604;SDS011;65496;50.978;16.998;2023-04-06T13:59:44;7.30;;;5.18;;
76604;SDS011;65496;50.978;16.998;2023-04-06T14:02:10;6.03;;;5.10;;
76604;SDS011;65496;50.978;16.998;2023-04-06T14:04:36;6.55;;;5.13;;
76604;SDS011;65496;50.978;16.998;2023-04-06T14:07:03;10.20;;;5.40;;
76604;SDS011;65496;50.978;16.998;2023-04-06T14:09:32;9.80;;;4.55;;
76604;SDS011;65496;50.978;16.998;2023-04-06T14:11:59;5.90;;;5.30;;
76604;SDS011;65496;50.978;16.998;2023-04-06T14:14:25;6.57;;;4.78;;
76604;SDS011;65496;50.978;16.998;2023-04-06T14:16:51;5.57;;;4.50;;
76604;SDS011;65496;50.978;16.998;2023-04-06T14:19:18;6.35;;;3.95;;
76604;SDS011;65496;50.978;16.998;2023-04-06T14:21:44;4.97;;;3.97;;
76604;SDS011;65496;50.978;16.998;2023-04-06T14:24:11;5.10;;;4.50;;
76604;SDS011;65496;50.978;16.998;2023-04-06T14:26:38;6.85;;;4.95;;
76604;SDS011;65496;50.978;16.998;2023-04-06T14:29:05;5.55;;;3.80;;
76604;SDS011;65496;50.978;16.998;2023-04-06T14:31:31;4.80;;;4.00;;